sensor_id;sensor_type;location;lat;lon;timestamp;P1;durP1;ratioP1;P2;durP2;ratioP2
1471;SDS011;963;42.644;23.336;2023-11-21T00:00:48;16.63;;;10.90;;
1471;SDS011;963;42.644;23.336;2023-11-21T00:03:14;19.20;;;12.40;;
1471;SDS011;963;42.644;23.336;2023-11-21T00:05:40;19.37;;;12.33;;
1471;SDS011;963;42.644;23.336;2023-11-21T00:08:07;18.20;;;11.83;;
1471;SDS011;963;42.644;23.336;2023-11-21T00:10:33;20.33;;;14.20;;
1471;SDS011;963;42.644;23.336;2023-11-21T00:12:59;18.90;;;12.30;;
1471;SDS011;963;42.644;23.336;2023-11-21T00:15:27;21.90;;;12.57;;
1471;SDS011;963;42.644;23.336;2023-11-21T00:17:53;22.10;;;13.10;;
1471;SDS011;963;42.644;23.336;2023-11-21T00:20:18;17.23;;;11.73;;
1471;SDS011;963;42.644;23.336;2023-11-21T00:22:43;18.07;;;11.60;;
1471;SDS011;963;42.644;23.336;2023-11-21T00:25:09;17.70;;;11.87;;
1471;SDS011;963;42.644;23.336;2023-11-21T00:27:35;16.43;;;11.77;;
1471;SDS011;963;42.644;23.336;2023-11-21T00:30:01;22.10;;;12.53;;
1471;SDS011;963;42.644;23.336;2023-11-21T00:32:26;20.40;;;11.10;;
1471;SDS011;963;42.644;23.336;2023-11-21T00:34:52;18.03;;;11.40;;
1471;SDS011;963;42.644;23.336;2023-11-21T00:37:17;22.83;;;12.70;;
1471;SDS011;963;42.644;23.336;2023-11-21T00:39:43;24.50;;;14.57;;
1471;SDS011;963;42.644;23.336;2023-11-21T00:42:08;20.03;;;12.47;;
1471;SDS011;963;42.644;23.336;2023-11-21T00:44:37;22.40;;;13.37;;
1471;SDS011;963;42.644;23.336;2023-11-21T00:47:04;23.83;;;13.20;;
1471;SDS011;963;42.644;23.336;2023-11-21T00:49:29;23.70;;;14.07;;
1471;SDS011;963;42.644;23.336;2023-11-21T00:51:54;21.30;;;13.67;;
1471;SDS011;963;42.644;23.336;2023-11-21T00:54:20;23.77;;;13.83;;
1471;SDS011;963;42.644;23.336;2023-11-21T00:56:45;26.27;;;14.93;;
1471;SDS011;963;42.644;23.336;2023-11-21T00:59:13;19.27;;;13.17;;
1471;SDS011;963;42.644;23.336;2023-11-21T01:01:38;23.23;;;13.50;;
1471;SDS011;963;42.644;23.336;2023-11-21T01:04:04;21.37;;;12.40;;
1471;SDS011;963;42.644;23.336;2023-11-21T01:06:31;20.93;;;13.43;;
1471;SDS011;963;42.644;23.336;2023-11-21T01:08:57;20.27;;;12.53;;
1471;SDS011;963;42.644;23.336;2023-11-21T01:11:22;23.00;;;12.80;;
1471;SDS011;963;42.644;23.336;2023-11-21T01:13:48;21.60;;;14.00;;
1471;SDS011;963;42.644;23.336;2023-11-21T01:16:13;20.20;;;13.50;;
1471;SDS011;963;42.644;23.336;2023-11-21T01:18:38;19.77;;;14.00;;
1471;SDS011;963;42.644;23.336;2023-11-21T01:21:04;20.03;;;13.93;;
1471;SDS011;963;42.644;23.336;2023-11-21T01:23:30;24.53;;;14.50;;
1471;SDS011;963;42.644;23.336;2023-11-21T01:25:56;26.60;;;13.90;;
1471;SDS011;963;42.644;23.336;2023-11-21T01:28:22;21.80;;;13.73;;
1471;SDS011;963;42.644;23.336;2023-11-21T01:30:47;23.23;;;14.87;;
1471;SDS011;963;42.644;23.336;2023-11-21T01:33:13;24.30;;;13.27;;
1471;SDS011;963;42.644;23.336;2023-11-21T01:35:40;21.63;;;14.90;;
1471;SDS011;963;42.644;23.336;2023-11-21T01:38:06;20.90;;;13.37;;
1471;SDS011;963;42.644;23.336;2023-11-21T01:40:33;23.80;;;13.63;;
1471;SDS011;963;42.644;23.336;2023-11-21T01:42:58;17.90;;;13.57;;
1471;SDS011;963;42.644;23.336;2023-11-21T01:45:24;21.37;;;14.10;;
1471;SDS011;963;42.644;23.336;2023-11-21T01:47:50;20.07;;;12.33;;
1471;SDS011;963;42.644;23.336;2023-11-21T01:50:16;23.27;;;13.53;;
1471;SDS011;963;42.644;23.336;2023-11-21T01:52:47;21.50;;;14.70;;
1471;SDS011;963;42.644;23.336;2023-11-21T01:55:13;21.80;;;13.90;;
1471;SDS011;963;42.644;23.336;2023-11-21T01:57:43;23.60;;;14.50;;
1471;SDS011;963;42.644;23.336;2023-11-21T02:00:08;20.50;;;14.53;;
1471;SDS011;963;42.644;23.336;2023-11-21T02:02:46;24.27;;;12.90;;
1471;SDS011;963;42.644;23.336;2023-11-21T02:05:13;19.77;;;12.70;;
1471;SDS011;963;42.644;23.336;2023-11-21T02:07:40;16.83;;;12.10;;
1471;SDS011;963;42.644;23.336;2023-11-21T02:10:06;20.07;;;13.83;;
1471;SDS011;963;42.644;23.336;2023-11-21T02:12:33;24.00;;;14.67;;
1471;SDS011;963;42.644;23.336;2023-11-21T02:15:00;19.40;;;13.03;;
1471;SDS011;963;42.644;23.336;2023-11-21T02:17:28;21.77;;;13.17;;
1471;SDS011;963;42.644;23.336;2023-11-21T02:19:53;21.43;;;14.00;;
1471;SDS011;963;42.644;23.336;2023-11-21T02:22:19;24.20;;;13.50;;
1471;SDS011;963;42.644;23.336;2023-11-21T02:24:45;27.90;;;13.40;;
1471;SDS011;963;42.644;23.336;2023-11-21T02:27:13;21.23;;;13.90;;
1471;SDS011;963;42.644;23.336;2023-11-21T02:29:39;22.67;;;13.33;;
1471;SDS011;963;42.644;23.336;2023-11-21T02:32:05;16.23;;;12.03;;
1471;SDS011;963;42.644;23.336;2023-11-21T02:34:30;17.43;;;12.57;;
1471;SDS011;963;42.644;23.336;2023-11-21T02:36:56;19.30;;;12.60;;
1471;SDS011;963;42.644;23.336;2023-11-21T02:39:22;16.30;;;11.80;;
1471;SDS011;963;42.644;23.336;2023-11-21T02:41:48;15.00;;;11.03;;
1471;SDS011;963;42.644;23.336;2023-11-21T02:44:14;18.80;;;11.73;;
1471;SDS011;963;42.644;23.336;2023-11-21T02:46:39;19.60;;;12.30;;
1471;SDS011;963;42.644;23.336;2023-11-21T02:49:05;17.53;;;11.63;;
1471;SDS011;963;42.644;23.336;2023-11-21T02:51:35;18.10;;;12.13;;
1471;SDS011;963;42.644;23.336;2023-11-21T02:54:01;21.03;;;12.20;;
1471;SDS011;963;42.644;23.336;2023-11-21T02:56:30;18.03;;;13.07;;
1471;SDS011;963;42.644;23.336;2023-11-21T02:58:56;19.67;;;13.93;;
1471;SDS011;963;42.644;23.336;2023-11-21T03:01:21;24.03;;;12.17;;
1471;SDS011;963;42.644;23.336;2023-11-21T03:03:48;16.67;;;12.27;;
1471;SDS011;963;42.644;23.336;2023-11-21T03:06:16;19.37;;;12.93;;
1471;SDS011;963;42.644;23.336;2023-11-21T03:08:42;23.23;;;13.53;;
1471;SDS011;963;42.644;23.336;2023-11-21T03:11:08;24.87;;;14.73;;
1471;SDS011;963;42.644;23.336;2023-11-21T03:13:33;19.57;;;12.40;;
1471;SDS011;963;42.644;23.336;2023-11-21T03:15:58;18.97;;;10.80;;
1471;SDS011;963;42.644;23.336;2023-11-21T03:18:24;19.37;;;12.10;;
1471;SDS011;963;42.644;23.336;2023-11-21T03:20:52;20.30;;;12.63;;
1471;SDS011;963;42.644;23.336;2023-11-21T03:23:18;20.93;;;11.53;;
1471;SDS011;963;42.644;23.336;2023-11-21T03:25:43;18.17;;;10.87;;
1471;SDS011;963;42.644;23.336;2023-11-21T03:28:09;15.40;;;11.33;;
1471;SDS011;963;42.644;23.336;2023-11-21T03:30:34;15.87;;;11.10;;
1471;SDS011;963;42.644;23.336;2023-11-21T03:33:00;16.20;;;10.90;;
1471;SDS011;963;42.644;23.336;2023-11-21T03:35:26;14.37;;;9.77;;
1471;SDS011;963;42.644;23.336;2023-11-21T03:37:51;16.80;;;11.40;;
1471;SDS011;963;42.644;23.336;2023-11-21T03:40:17;15.87;;;10.97;;
1471;SDS011;963;42.644;23.336;2023-11-21T03:42:42;15.73;;;10.33;;
1471;SDS011;963;42.644;23.336;2023-11-21T03:45:08;15.67;;;10.03;;
1471;SDS011;963;42.644;23.336;2023-11-21T03:47:34;13.13;;;8.90;;
1471;SDS011;963;42.644;23.336;2023-11-21T03:49:59;11.10;;;8.27;;
1471;SDS011;963;42.644;23.336;2023-11-21T03:52:25;11.57;;;8.13;;
1471;SDS011;963;42.644;23.336;2023-11-21T03:54:52;13.57;;;8.50;;
1471;SDS011;963;42.644;23.336;2023-11-21T03:57:17;10.37;;;8.07;;
1471;SDS011;963;42.644;23.336;2023-11-21T03:59:43;16.53;;;7.37;;
1471;SDS011;963;42.644;23.336;2023-11-21T04:02:08;12.80;;;8.40;;
1471;SDS011;963;42.644;23.336;2023-11-21T04:04:34;14.50;;;8.53;;
1471;SDS011;963;42.644;23.336;2023-11-21T04:07:00;16.40;;;10.10;;
1471;SDS011;963;42.644;23.336;2023-11-21T04:09:25;16.83;;;10.83;;
1471;SDS011;963;42.644;23.336;2023-11-21T04:11:51;15.57;;;9.23;;
1471;SDS011;963;42.644;23.336;2023-11-21T04:14:17;14.53;;;9.57;;
1471;SDS011;963;42.644;23.336;2023-11-21T04:16:43;18.70;;;10.70;;
1471;SDS011;963;42.644;23.336;2023-11-21T04:19:08;16.23;;;10.87;;
1471;SDS011;963;42.644;23.336;2023-11-21T04:21:39;17.20;;;10.00;;
1471;SDS011;963;42.644;23.336;2023-11-21T04:24:07;15.20;;;9.53;;
1471;SDS011;963;42.644;23.336;2023-11-21T04:26:33;15.03;;;8.97;;
1471;SDS011;963;42.644;23.336;2023-11-21T04:28:58;11.70;;;7.23;;
1471;SDS011;963;42.644;23.336;2023-11-21T04:31:24;8.50;;;6.03;;
1471;SDS011;963;42.644;23.336;2023-11-21T04:33:49;7.93;;;6.37;;
1471;SDS011;963;42.644;23.336;2023-11-21T04:36:15;8.23;;;6.00;;
1471;SDS011;963;42.644;23.336;2023-11-21T04:38:40;8.17;;;5.30;;
1471;SDS011;963;42.644;23.336;2023-11-21T04:41:06;7.20;;;5.20;;
1471;SDS011;963;42.644;23.336;2023-11-21T04:43:31;6.37;;;5.10;;
1471;SDS011;963;42.644;23.336;2023-11-21T04:45:56;7.77;;;5.37;;
1471;SDS011;963;42.644;23.336;2023-11-21T04:48:22;7.47;;;5.37;;
1471;SDS011;963;42.644;23.336;2023-11-21T04:50:47;8.30;;;5.50;;
1471;SDS011;963;42.644;23.336;2023-11-21T04:53:13;8.23;;;5.60;;
1471;SDS011;963;42.644;23.336;2023-11-21T04:55:39;9.50;;;5.87;;
1471;SDS011;963;42.644;23.336;2023-11-21T04:58:05;7.67;;;5.20;;
1471;SDS011;963;42.644;23.336;2023-11-21T05:00:31;6.17;;;4.20;;
1471;SDS011;963;42.644;23.336;2023-11-21T05:02:56;5.53;;;4.40;;
1471;SDS011;963;42.644;23.336;2023-11-21T05:05:22;6.87;;;4.60;;
1471;SDS011;963;42.644;23.336;2023-11-21T05:07:47;6.20;;;4.87;;
1471;SDS011;963;42.644;23.336;2023-11-21T05:10:14;6.90;;;4.40;;
1471;SDS011;963;42.644;23.336;2023-11-21T05:12:40;6.80;;;5.00;;
1471;SDS011;963;42.644;23.336;2023-11-21T05:15:08;9.00;;;5.63;;
1471;SDS011;963;42.644;23.336;2023-11-21T05:17:37;7.13;;;3.97;;
1471;SDS011;963;42.644;23.336;2023-11-21T05:20:07;7.40;;;4.50;;
1471;SDS011;963;42.644;23.336;2023-11-21T05:22:34;13.57;;;6.60;;
1471;SDS011;963;42.644;23.336;2023-11-21T05:25:00;8.80;;;6.23;;
1471;SDS011;963;42.644;23.336;2023-11-21T05:27:26;13.47;;;6.07;;
1471;SDS011;963;42.644;23.336;2023-11-21T05:29:51;9.13;;;6.73;;
1471;SDS011;963;42.644;23.336;2023-11-21T05:32:16;13.80;;;7.70;;
1471;SDS011;963;42.644;23.336;2023-11-21T05:34:42;12.37;;;8.00;;
1471;SDS011;963;42.644;23.336;2023-11-21T05:37:08;13.47;;;8.23;;
1471;SDS011;963;42.644;23.336;2023-11-21T05:39:33;23.37;;;9.83;;
1471;SDS011;963;42.644;23.336;2023-11-21T05:41:58;16.90;;;10.53;;
1471;SDS011;963;42.644;23.336;2023-11-21T05:44:25;17.80;;;10.73;;
1471;SDS011;963;42.644;23.336;2023-11-21T05:46:50;15.43;;;10.20;;
1471;SDS011;963;42.644;23.336;2023-11-21T05:49:16;16.53;;;11.37;;
1471;SDS011;963;42.644;23.336;2023-11-21T05:51:41;21.43;;;12.80;;
1471;SDS011;963;42.644;23.336;2023-11-21T05:54:07;24.70;;;15.53;;
1471;SDS011;963;42.644;23.336;2023-11-21T05:56:33;30.27;;;18.53;;
1471;SDS011;963;42.644;23.336;2023-11-21T05:58:58;25.20;;;16.23;;
1471;SDS011;963;42.644;23.336;2023-11-21T06:01:24;26.70;;;17.73;;
1471;SDS011;963;42.644;23.336;2023-11-21T06:03:53;35.17;;;17.07;;
1471;SDS011;963;42.644;23.336;2023-11-21T06:06:20;29.50;;;17.80;;
1471;SDS011;963;42.644;23.336;2023-11-21T06:08:47;29.50;;;17.77;;
1471;SDS011;963;42.644;23.336;2023-11-21T06:11:13;34.93;;;19.90;;
1471;SDS011;963;42.644;23.336;2023-11-21T06:13:39;29.40;;;18.90;;
1471;SDS011;963;42.644;23.336;2023-11-21T06:16:05;29.03;;;18.70;;
1471;SDS011;963;42.644;23.336;2023-11-21T06:18:30;30.37;;;18.90;;
1471;SDS011;963;42.644;23.336;2023-11-21T06:20:56;24.47;;;16.50;;
1471;SDS011;963;42.644;23.336;2023-11-21T06:23:21;23.57;;;15.97;;
1471;SDS011;963;42.644;23.336;2023-11-21T06:25:47;23.30;;;16.70;;
1471;SDS011;963;42.644;23.336;2023-11-21T06:28:12;25.63;;;17.73;;
1471;SDS011;963;42.644;23.336;2023-11-21T06:30:37;25.97;;;16.93;;
1471;SDS011;963;42.644;23.336;2023-11-21T06:33:03;28.67;;;15.93;;
1471;SDS011;963;42.644;23.336;2023-11-21T06:35:28;22.40;;;15.70;;
1471;SDS011;963;42.644;23.336;2023-11-21T06:37:55;23.00;;;15.27;;
1471;SDS011;963;42.644;23.336;2023-11-21T06:40:20;26.20;;;14.83;;
1471;SDS011;963;42.644;23.336;2023-11-21T06:42:46;23.40;;;14.73;;
1471;SDS011;963;42.644;23.336;2023-11-21T06:45:12;20.40;;;12.90;;
1471;SDS011;963;42.644;23.336;2023-11-21T06:47:38;22.13;;;13.00;;
1471;SDS011;963;42.644;23.336;2023-11-21T06:50:04;19.90;;;12.67;;
1471;SDS011;963;42.644;23.336;2023-11-21T06:52:31;21.10;;;13.47;;
1471;SDS011;963;42.644;23.336;2023-11-21T06:54:57;20.53;;;13.70;;
1471;SDS011;963;42.644;23.336;2023-11-21T06:57:22;25.53;;;15.47;;
1471;SDS011;963;42.644;23.336;2023-11-21T06:59:48;28.47;;;16.30;;
1471;SDS011;963;42.644;23.336;2023-11-21T07:02:15;36.43;;;22.00;;
1471;SDS011;963;42.644;23.336;2023-11-21T07:04:43;29.97;;;16.63;;
1471;SDS011;963;42.644;23.336;2023-11-21T07:07:11;32.33;;;15.93;;
1471;SDS011;963;42.644;23.336;2023-11-21T07:09:37;28.43;;;16.90;;
1471;SDS011;963;42.644;23.336;2023-11-21T07:12:03;31.63;;;17.03;;
1471;SDS011;963;42.644;23.336;2023-11-21T07:14:31;34.27;;;16.80;;
1471;SDS011;963;42.644;23.336;2023-11-21T07:16:57;32.63;;;16.17;;
1471;SDS011;963;42.644;23.336;2023-11-21T07:19:22;29.20;;;15.80;;
1471;SDS011;963;42.644;23.336;2023-11-21T07:21:48;28.20;;;16.93;;
1471;SDS011;963;42.644;23.336;2023-11-21T07:24:16;29.17;;;16.20;;
1471;SDS011;963;42.644;23.336;2023-11-21T07:26:41;26.20;;;15.20;;
1471;SDS011;963;42.644;23.336;2023-11-21T07:29:06;24.10;;;15.80;;
1471;SDS011;963;42.644;23.336;2023-11-21T07:31:32;22.37;;;14.70;;
1471;SDS011;963;42.644;23.336;2023-11-21T07:33:59;27.80;;;14.60;;
1471;SDS011;963;42.644;23.336;2023-11-21T07:36:24;25.17;;;13.73;;
1471;SDS011;963;42.644;23.336;2023-11-21T07:38:50;27.37;;;15.17;;
1471;SDS011;963;42.644;23.336;2023-11-21T07:41:17;22.90;;;14.60;;
1471;SDS011;963;42.644;23.336;2023-11-21T07:43:43;39.83;;;21.27;;
1471;SDS011;963;42.644;23.336;2023-11-21T07:46:10;23.07;;;12.33;;
1471;SDS011;963;42.644;23.336;2023-11-21T07:48:37;20.93;;;14.03;;
1471;SDS011;963;42.644;23.336;2023-11-21T07:51:11;20.53;;;15.00;;
1471;SDS011;963;42.644;23.336;2023-11-21T07:53:38;23.13;;;15.50;;
1471;SDS011;963;42.644;23.336;2023-11-21T07:56:07;26.00;;;14.80;;
1471;SDS011;963;42.644;23.336;2023-11-21T07:58:34;23.80;;;16.17;;
1471;SDS011;963;42.644;23.336;2023-11-21T08:01:00;29.93;;;17.90;;
1471;SDS011;963;42.644;23.336;2023-11-21T08:03:26;26.50;;;16.30;;
1471;SDS011;963;42.644;23.336;2023-11-21T08:05:52;24.77;;;15.90;;
1471;SDS011;963;42.644;23.336;2023-11-21T08:08:17;30.93;;;16.90;;
1471;SDS011;963;42.644;23.336;2023-11-21T08:10:43;22.70;;;15.53;;
1471;SDS011;963;42.644;23.336;2023-11-21T08:13:13;22.47;;;15.30;;
1471;SDS011;963;42.644;23.336;2023-11-21T08:15:40;23.03;;;15.40;;
1471;SDS011;963;42.644;23.336;2023-11-21T08:18:10;26.30;;;15.60;;
1471;SDS011;963;42.644;23.336;2023-11-21T08:20:35;25.73;;;15.80;;
1471;SDS011;963;42.644;23.336;2023-11-21T08:23:03;26.30;;;15.60;;
1471;SDS011;963;42.644;23.336;2023-11-21T08:25:30;25.33;;;15.97;;
1471;SDS011;963;42.644;23.336;2023-11-21T08:27:56;26.23;;;16.80;;
1471;SDS011;963;42.644;23.336;2023-11-21T08:30:22;24.00;;;15.30;;
1471;SDS011;963;42.644;23.336;2023-11-21T08:32:49;21.67;;;14.03;;
1471;SDS011;963;42.644;23.336;2023-11-21T08:35:14;22.07;;;14.93;;
1471;SDS011;963;42.644;23.336;2023-11-21T08:37:41;22.63;;;15.13;;
1471;SDS011;963;42.644;23.336;2023-11-21T08:40:06;24.03;;;15.10;;
1471;SDS011;963;42.644;23.336;2023-11-21T08:42:34;22.40;;;15.23;;
1471;SDS011;963;42.644;23.336;2023-11-21T08:45:00;21.73;;;15.63;;
1471;SDS011;963;42.644;23.336;2023-11-21T08:47:26;18.30;;;14.03;;
1471;SDS011;963;42.644;23.336;2023-11-21T08:49:52;25.13;;;16.43;;
1471;SDS011;963;42.644;23.336;2023-11-21T08:52:18;23.10;;;16.13;;
1471;SDS011;963;42.644;23.336;2023-11-21T08:54:48;25.60;;;15.80;;
1471;SDS011;963;42.644;23.336;2023-11-21T08:57:14;22.50;;;15.63;;
1471;SDS011;963;42.644;23.336;2023-11-21T08:59:39;26.83;;;16.10;;
1471;SDS011;963;42.644;23.336;2023-11-21T09:02:04;19.93;;;15.10;;
1471;SDS011;963;42.644;23.336;2023-11-21T09:04:30;24.67;;;15.00;;
1471;SDS011;963;42.644;23.336;2023-11-21T09:06:56;27.33;;;15.27;;
1471;SDS011;963;42.644;23.336;2023-11-21T09:09:25;20.80;;;15.93;;
1471;SDS011;963;42.644;23.336;2023-11-21T09:11:50;31.23;;;17.77;;
1471;SDS011;963;42.644;23.336;2023-11-21T09:14:16;29.27;;;16.23;;
1471;SDS011;963;42.644;23.336;2023-11-21T09:16:42;22.80;;;15.80;;
1471;SDS011;963;42.644;23.336;2023-11-21T09:19:08;20.20;;;13.70;;
1471;SDS011;963;42.644;23.336;2023-11-21T09:21:34;25.90;;;15.73;;
1471;SDS011;963;42.644;23.336;2023-11-21T09:23:59;24.73;;;15.67;;
1471;SDS011;963;42.644;23.336;2023-11-21T09:26:24;22.70;;;16.00;;
1471;SDS011;963;42.644;23.336;2023-11-21T09:28:50;27.23;;;17.40;;
1471;SDS011;963;42.644;23.336;2023-11-21T09:31:15;29.90;;;17.87;;
1471;SDS011;963;42.644;23.336;2023-11-21T09:33:42;22.23;;;12.93;;
1471;SDS011;963;42.644;23.336;2023-11-21T09:36:12;22.93;;;14.03;;
1471;SDS011;963;42.644;23.336;2023-11-21T09:38:41;20.03;;;12.90;;
1471;SDS011;963;42.644;23.336;2023-11-21T09:41:15;17.47;;;11.60;;
1471;SDS011;963;42.644;23.336;2023-11-21T09:43:49;23.33;;;12.20;;
1471;SDS011;963;42.644;23.336;2023-11-21T09:46:20;22.70;;;11.57;;
1471;SDS011;963;42.644;23.336;2023-11-21T09:48:50;19.47;;;14.33;;
1471;SDS011;963;42.644;23.336;2023-11-21T09:51:19;19.67;;;12.90;;
1471;SDS011;963;42.644;23.336;2023-11-21T09:53:47;24.93;;;14.17;;
1471;SDS011;963;42.644;23.336;2023-11-21T09:56:17;22.57;;;12.67;;
1471;SDS011;963;42.644;23.336;2023-11-21T09:58:50;26.23;;;13.60;;
1471;SDS011;963;42.644;23.336;2023-11-21T10:01:16;18.67;;;12.87;;
1471;SDS011;963;42.644;23.336;2023-11-21T10:03:43;20.20;;;13.50;;
1471;SDS011;963;42.644;23.336;2023-11-21T10:06:09;20.20;;;12.53;;
1471;SDS011;963;42.644;23.336;2023-11-21T10:08:39;24.13;;;14.27;;
1471;SDS011;963;42.644;23.336;2023-11-21T10:11:05;25.60;;;15.00;;
1471;SDS011;963;42.644;23.336;2023-11-21T10:13:33;23.53;;;14.50;;
1471;SDS011;963;42.644;23.336;2023-11-21T10:16:00;20.57;;;14.37;;
1471;SDS011;963;42.644;23.336;2023-11-21T10:18:30;21.47;;;13.90;;
1471;SDS011;963;42.644;23.336;2023-11-21T10:20:59;20.27;;;13.30;;
1471;SDS011;963;42.644;23.336;2023-11-21T10:23:24;19.20;;;12.83;;
1471;SDS011;963;42.644;23.336;2023-11-21T10:25:51;18.50;;;11.20;;
1471;SDS011;963;42.644;23.336;2023-11-21T10:28:17;17.97;;;13.20;;
1471;SDS011;963;42.644;23.336;2023-11-21T10:30:43;20.27;;;13.03;;
1471;SDS011;963;42.644;23.336;2023-11-21T10:33:09;22.73;;;13.43;;
1471;SDS011;963;42.644;23.336;2023-11-21T10:35:46;25.67;;;13.10;;
1471;SDS011;963;42.644;23.336;2023-11-21T10:38:16;23.33;;;15.20;;
1471;SDS011;963;42.644;23.336;2023-11-21T10:40:42;23.90;;;14.13;;
1471;SDS011;963;42.644;23.336;2023-11-21T10:43:10;26.33;;;14.00;;
1471;SDS011;963;42.644;23.336;2023-11-21T10:45:37;26.27;;;15.20;;
1471;SDS011;963;42.644;23.336;2023-11-21T10:48:07;21.40;;;13.80;;
1471;SDS011;963;42.644;23.336;2023-11-21T10:50:34;25.37;;;14.10;;
1471;SDS011;963;42.644;23.336;2023-11-21T10:53:01;20.80;;;14.17;;
1471;SDS011;963;42.644;23.336;2023-11-21T10:55:31;20.83;;;14.20;;
1471;SDS011;963;42.644;23.336;2023-11-21T10:58:01;17.27;;;11.83;;
1471;SDS011;963;42.644;23.336;2023-11-21T11:00:29;18.47;;;13.00;;
1471;SDS011;963;42.644;23.336;2023-11-21T11:02:56;22.60;;;12.60;;
1471;SDS011;963;42.644;23.336;2023-11-21T11:05:23;19.50;;;13.90;;
1471;SDS011;963;42.644;23.336;2023-11-21T11:07:52;28.63;;;14.30;;
1471;SDS011;963;42.644;23.336;2023-11-21T11:10:29;17.50;;;11.77;;
1471;SDS011;963;42.644;23.336;2023-11-21T11:12:55;16.10;;;11.50;;
1471;SDS011;963;42.644;23.336;2023-11-21T11:15:24;17.83;;;11.73;;
1471;SDS011;963;42.644;23.336;2023-11-21T11:17:52;15.00;;;10.67;;
1471;SDS011;963;42.644;23.336;2023-11-21T11:20:21;13.50;;;10.13;;
1471;SDS011;963;42.644;23.336;2023-11-21T11:33:43;14.07;;;10.70;;
1471;SDS011;963;42.644;23.336;2023-11-21T11:36:31;19.33;;;14.17;;
1471;SDS011;963;42.644;23.336;2023-11-21T11:39:02;18.53;;;13.97;;
1471;SDS011;963;42.644;23.336;2023-11-21T11:41:31;24.13;;;13.80;;
1471;SDS011;963;42.644;23.336;2023-11-21T11:44:02;20.40;;;11.90;;
1471;SDS011;963;42.644;23.336;2023-11-21T11:46:47;26.17;;;15.20;;
1471;SDS011;963;42.644;23.336;2023-11-21T11:49:28;54.57;;;25.30;;
1471;SDS011;963;42.644;23.336;2023-11-21T11:54:56;25.83;;;14.47;;
1471;SDS011;963;42.644;23.336;2023-11-21T11:57:24;25.83;;;17.10;;
1471;SDS011;963;42.644;23.336;2023-11-21T12:02:49;26.03;;;17.03;;
1471;SDS011;963;42.644;23.336;2023-11-21T12:05:17;26.00;;;17.07;;
1471;SDS011;963;42.644;23.336;2023-11-21T12:07:48;31.37;;;18.90;;
1471;SDS011;963;42.644;23.336;2023-11-21T12:10:18;26.20;;;18.03;;
1471;SDS011;963;42.644;23.336;2023-11-21T12:12:50;24.17;;;18.30;;
1471;SDS011;963;42.644;23.336;2023-11-21T12:15:20;25.10;;;17.73;;
1471;SDS011;963;42.644;23.336;2023-11-21T12:17:47;28.90;;;19.57;;
1471;SDS011;963;42.644;23.336;2023-11-21T12:20:14;24.57;;;18.60;;
1471;SDS011;963;42.644;23.336;2023-11-21T12:22:53;20.00;;;17.13;;
1471;SDS011;963;42.644;23.336;2023-11-21T12:25:23;28.30;;;20.97;;
1471;SDS011;963;42.644;23.336;2023-11-21T12:27:52;50.40;;;37.53;;
1471;SDS011;963;42.644;23.336;2023-11-21T12:30:18;39.47;;;29.73;;
1471;SDS011;963;42.644;23.336;2023-11-21T12:32:51;34.53;;;23.80;;
1471;SDS011;963;42.644;23.336;2023-11-21T12:35:18;25.67;;;19.50;;
1471;SDS011;963;42.644;23.336;2023-11-21T12:37:46;28.67;;;18.90;;
1471;SDS011;963;42.644;23.336;2023-11-21T12:40:12;31.93;;;19.97;;
1471;SDS011;963;42.644;23.336;2023-11-21T12:42:47;27.00;;;20.73;;
1471;SDS011;963;42.644;23.336;2023-11-21T12:47:48;28.13;;;18.57;;
1471;SDS011;963;42.644;23.336;2023-11-21T12:50:22;26.40;;;18.20;;
1471;SDS011;963;42.644;23.336;2023-11-21T12:52:49;25.00;;;18.90;;
1471;SDS011;963;42.644;23.336;2023-11-21T12:55:19;23.70;;;19.77;;
1471;SDS011;963;42.644;23.336;2023-11-21T12:57:48;24.40;;;19.93;;
1471;SDS011;963;42.644;23.336;2023-11-21T13:00:31;27.53;;;19.13;;
1471;SDS011;963;42.644;23.336;2023-11-21T13:03:02;31.00;;;20.50;;
1471;SDS011;963;42.644;23.336;2023-11-21T13:05:29;30.57;;;19.53;;
1471;SDS011;963;42.644;23.336;2023-11-21T13:07:57;27.43;;;18.03;;
1471;SDS011;963;42.644;23.336;2023-11-21T13:10:27;27.40;;;19.77;;
1471;SDS011;963;42.644;23.336;2023-11-21T13:12:56;27.17;;;20.30;;
1471;SDS011;963;42.644;23.336;2023-11-21T13:15:23;33.40;;;20.80;;
1471;SDS011;963;42.644;23.336;2023-11-21T13:17:50;27.93;;;20.70;;
1471;SDS011;963;42.644;23.336;2023-11-21T13:20:16;30.70;;;21.13;;
1471;SDS011;963;42.644;23.336;2023-11-21T13:22:52;36.57;;;21.50;;
1471;SDS011;963;42.644;23.336;2023-11-21T13:25:22;29.30;;;21.40;;
1471;SDS011;963;42.644;23.336;2023-11-21T13:27:48;34.50;;;21.20;;
1471;SDS011;963;42.644;23.336;2023-11-21T13:30:14;35.17;;;20.60;;
1471;SDS011;963;42.644;23.336;2023-11-21T13:32:41;29.87;;;20.90;;
1471;SDS011;963;42.644;23.336;2023-11-21T13:35:07;32.33;;;21.73;;
1471;SDS011;963;42.644;23.336;2023-11-21T13:37:37;35.90;;;21.57;;
1471;SDS011;963;42.644;23.336;2023-11-21T13:40:02;33.27;;;22.90;;
1471;SDS011;963;42.644;23.336;2023-11-21T13:42:35;31.23;;;23.13;;
1471;SDS011;963;42.644;23.336;2023-11-21T13:45:00;36.70;;;22.73;;
1471;SDS011;963;42.644;23.336;2023-11-21T13:47:25;29.17;;;21.03;;
1471;SDS011;963;42.644;23.336;2023-11-21T13:49:54;40.57;;;23.40;;
1471;SDS011;963;42.644;23.336;2023-11-21T13:52:20;34.53;;;22.83;;
1471;SDS011;963;42.644;23.336;2023-11-21T13:54:48;30.33;;;21.10;;
1471;SDS011;963;42.644;23.336;2023-11-21T13:57:14;29.53;;;22.20;;
1471;SDS011;963;42.644;23.336;2023-11-21T13:59:39;32.07;;;21.43;;
1471;SDS011;963;42.644;23.336;2023-11-21T14:02:04;32.47;;;22.90;;
1471;SDS011;963;42.644;23.336;2023-11-21T14:04:43;35.93;;;22.90;;
1471;SDS011;963;42.644;23.336;2023-11-21T14:07:19;33.27;;;22.67;;
1471;SDS011;963;42.644;23.336;2023-11-21T14:10:03;34.00;;;25.63;;
1471;SDS011;963;42.644;23.336;2023-11-21T14:12:31;32.97;;;24.57;;
1471;SDS011;963;42.644;23.336;2023-11-21T14:14:59;47.80;;;23.53;;
1471;SDS011;963;42.644;23.336;2023-11-21T14:17:25;40.63;;;24.53;;
1471;SDS011;963;42.644;23.336;2023-11-21T14:19:50;41.63;;;24.37;;
1471;SDS011;963;42.644;23.336;2023-11-21T14:22:16;49.43;;;28.80;;
1471;SDS011;963;42.644;23.336;2023-11-21T14:24:42;38.07;;;24.10;;
1471;SDS011;963;42.644;23.336;2023-11-21T14:27:11;46.50;;;27.97;;
1471;SDS011;963;42.644;23.336;2023-11-21T14:29:37;35.10;;;26.10;;
1471;SDS011;963;42.644;23.336;2023-11-21T14:32:04;41.00;;;25.70;;
1471;SDS011;963;42.644;23.336;2023-11-21T14:34:30;34.53;;;23.87;;
1471;SDS011;963;42.644;23.336;2023-11-21T14:36:56;37.07;;;23.30;;
1471;SDS011;963;42.644;23.336;2023-11-21T14:39:22;35.00;;;24.13;;
1471;SDS011;963;42.644;23.336;2023-11-21T14:41:54;31.03;;;22.83;;
1471;SDS011;963;42.644;23.336;2023-11-21T14:44:24;38.10;;;25.13;;
1471;SDS011;963;42.644;23.336;2023-11-21T14:46:51;30.37;;;22.73;;
1471;SDS011;963;42.644;23.336;2023-11-21T14:49:18;55.50;;;25.93;;
1471;SDS011;963;42.644;23.336;2023-11-21T14:51:46;39.33;;;25.43;;
1471;SDS011;963;42.644;23.336;2023-11-21T14:54:20;32.47;;;21.47;;
1471;SDS011;963;42.644;23.336;2023-11-21T14:57:03;35.70;;;22.80;;
1471;SDS011;963;42.644;23.336;2023-11-21T14:59:30;42.17;;;22.70;;
1471;SDS011;963;42.644;23.336;2023-11-21T15:01:57;35.43;;;24.00;;
1471;SDS011;963;42.644;23.336;2023-11-21T15:04:22;39.57;;;24.50;;
1471;SDS011;963;42.644;23.336;2023-11-21T15:07:04;46.07;;;25.87;;
1471;SDS011;963;42.644;23.336;2023-11-21T15:09:31;39.30;;;26.53;;